createdAt,value
2022-07-29T00:01:45.454Z,16.04
2022-07-29T00:04:14.497Z,16.17
2022-07-29T00:06:43.370Z,16.31
2022-07-29T00:09:11.423Z,16.41
2022-07-29T00:11:39.720Z,16.38
2022-07-29T00:14:09.255Z,16.76
2022-07-29T00:16:37.747Z,16.87
2022-07-29T00:19:05.952Z,16.95
2022-07-29T00:21:36.136Z,17.14
2022-07-29T00:24:06.807Z,17.27
2022-07-29T00:26:35.263Z,17.40
2022-07-29T00:31:53.483Z,17.63
2022-07-29T00:34:46.831Z,17.77
2022-07-29T00:37:14.828Z,17.98
2022-07-29T00:39:42.936Z,18.12
2022-07-29T00:42:11.380Z,18.24
2022-07-29T00:44:41.212Z,18.39
2022-07-29T00:47:11.449Z,18.55
2022-07-29T00:49:41.766Z,18.70
2022-07-29T00:52:11.558Z,18.81
2022-07-29T00:54:44.338Z,18.91
2022-07-29T00:57:13.651Z,18.97
2022-07-29T00:59:41.772Z,19.05
2022-07-29T01:02:10.988Z,19.08
2022-07-29T01:04:39.341Z,19.13
2022-07-29T01:07:08.742Z,19.22
2022-07-29T01:09:45.368Z,19.33
2022-07-29T01:12:23.411Z,19.49
2022-07-29T01:14:54.959Z,19.67
2022-07-29T01:17:36.859Z,19.80
2022-07-29T01:20:34.608Z,19.95
2022-07-29T01:23:09.222Z,20.08
2022-07-29T01:26:14.572Z,20.22
2022-07-29T01:28:54.691Z,20.37
2022-07-29T01:31:33.769Z,20.50
2022-07-29T01:34:08.141Z,20.63
2022-07-29T01:36:45.569Z,20.83
2022-07-29T01:39:21.641Z,20.93
2022-07-29T01:42:24.351Z,21.20
2022-07-29T01:45:29.358Z,21.44
2022-07-29T01:48:19.857Z,21.67
2022-07-29T01:50:54.119Z,21.87
2022-07-29T01:53:38.190Z,22.03
2022-07-29T01:56:10.685Z,22.16
2022-07-29T01:58:43.281Z,22.29
2022-07-29T02:01:13.691Z,22.45
2022-07-29T02:03:48.841Z,22.61
2022-07-29T02:06:21.189Z,22.72
2022-07-29T02:08:51.233Z,22.89
2022-07-29T02:11:19.576Z,23.06
2022-07-29T02:13:49.683Z,23.14
2022-07-29T02:16:22.877Z,23.28
2022-07-29T02:18:55.379Z,23.43
2022-07-29T02:21:29.000Z,23.50
2022-07-29T02:23:59.417Z,23.59
2022-07-29T02:26:29.122Z,23.72
2022-07-29T02:28:59.487Z,23.87
2022-07-29T02:31:34.883Z,23.94
2022-07-29T02:34:10.191Z,23.89
2022-07-29T02:36:39.830Z,24.12
2022-07-29T02:39:12.740Z,24.19
2022-07-29T02:41:43.413Z,24.24
2022-07-29T02:44:24.455Z,24.34
2022-07-29T02:47:18.800Z,24.50
2022-07-29T02:50:10.201Z,24.57
2022-07-29T02:52:56.706Z,24.69
2022-07-29T02:55:33.415Z,24.68
2022-07-29T02:58:07.755Z,24.70
2022-07-29T03:00:40.388Z,24.61
2022-07-29T03:03:14.953Z,24.52
2022-07-29T03:05:43.429Z,24.75
2022-07-29T03:08:31.359Z,24.96
2022-07-29T03:10:59.739Z,25.13
2022-07-29T03:13:29.320Z,25.22
2022-07-29T03:15:59.414Z,25.27
2022-07-29T03:18:29.879Z,25.34
2022-07-29T03:20:57.949Z,25.45
2022-07-29T03:23:28.672Z,25.37
2022-07-29T03:26:03.515Z,25.41
2022-07-29T03:28:31.483Z,25.48
2022-07-29T03:31:00.124Z,25.59
2022-07-29T03:33:28.189Z,25.65
2022-07-29T03:35:56.287Z,25.75
2022-07-29T03:38:28.624Z,25.83
2022-07-29T03:41:03.798Z,25.93
2022-07-29T03:43:49.634Z,26.02
2022-07-29T03:46:19.576Z,26.11
2022-07-29T03:48:52.658Z,26.15
2022-07-29T03:51:40.263Z,26.27
2022-07-29T03:54:14.091Z,26.30
2022-07-29T03:56:48.115Z,26.37
2022-07-29T03:59:20.829Z,26.46
2022-07-29T04:01:50.793Z,26.53
2022-07-29T04:04:19.707Z,26.60
2022-07-29T04:06:49.668Z,26.62
2022-07-29T04:09:17.737Z,26.72
2022-07-29T04:12:01.616Z,26.80
2022-07-29T04:14:36.219Z,26.90
2022-07-29T04:17:05.625Z,26.94
2022-07-29T04:19:34.528Z,26.96
2022-07-29T04:22:05.050Z,27.04
2022-07-29T04:24:33.103Z,27.14
2022-07-29T04:27:01.106Z,27.15
2022-07-29T04:29:29.354Z,27.11
2022-07-29T04:31:57.369Z,27.21
2022-07-29T04:34:28.273Z,27.20
2022-07-29T04:36:59.077Z,27.25
2022-07-29T04:39:29.689Z,27.38
2022-07-29T04:41:58.583Z,27.49
2022-07-29T04:44:29.745Z,27.56
2022-07-29T04:46:59.235Z,27.54
2022-07-29T04:49:27.714Z,27.20
2022-07-29T04:51:57.166Z,26.89
2022-07-29T04:54:25.564Z,26.90
2022-07-29T04:56:53.750Z,26.89
2022-07-29T04:59:22.078Z,26.58
2022-07-29T05:01:50.225Z,26.28
2022-07-29T05:04:18.633Z,26.38
2022-07-29T05:06:49.072Z,26.51
2022-07-29T05:09:17.108Z,26.76
2022-07-29T05:11:45.512Z,26.66
2022-07-29T05:14:14.713Z,26.70
2022-07-29T05:16:43.554Z,26.68
2022-07-29T05:19:14.571Z,26.69
2022-07-29T05:21:45.759Z,26.73
2022-07-29T05:24:13.909Z,26.85
2022-07-29T05:26:42.410Z,26.71
2022-07-29T05:29:44.614Z,26.54
2022-07-29T05:31:58.939Z,26.63
2022-07-29T05:34:29.218Z,26.69
2022-07-29T05:36:57.224Z,26.80
2022-07-29T05:39:47.271Z,26.77
2022-07-29T05:42:13.747Z,26.93
2022-07-29T05:44:42.221Z,27.04
2022-07-29T05:47:10.298Z,27.07
2022-07-29T05:49:38.444Z,26.72
2022-07-29T05:52:24.934Z,26.47
2022-07-29T05:54:54.083Z,26.39
2022-07-29T05:57:24.853Z,26.46
2022-07-29T05:59:53.347Z,26.28
2022-07-29T06:02:21.761Z,26.07
2022-07-29T06:04:50.343Z,25.91
2022-07-29T06:07:18.386Z,26.06
2022-07-29T06:09:48.118Z,26.18
2022-07-29T06:12:16.179Z,26.18
2022-07-29T06:14:44.185Z,26.10
2022-07-29T06:17:13.395Z,26.00
2022-07-29T06:19:41.466Z,26.00
2022-07-29T06:22:11.470Z,26.05
2022-07-29T06:24:44.143Z,26.12
2022-07-29T06:27:13.081Z,25.96
2022-07-29T06:29:41.278Z,25.98
2022-07-29T06:32:11.197Z,25.82
2022-07-29T06:34:38.956Z,25.91
2022-07-29T06:37:15.385Z,25.96
2022-07-29T06:39:44.920Z,26.03
2022-07-29T06:42:13.090Z,25.96
2022-07-29T06:44:41.171Z,25.83
2022-07-29T06:47:11.784Z,25.87
2022-07-29T06:49:40.568Z,25.79
2022-07-29T06:52:08.585Z,25.64
2022-07-29T06:54:36.640Z,25.46
2022-07-29T06:57:04.637Z,25.46
2022-07-29T06:59:35.976Z,25.46
2022-07-29T07:02:04.650Z,25.43
2022-07-29T07:04:33.691Z,25.52
2022-07-29T07:07:01.747Z,25.55
2022-07-29T07:09:39.798Z,25.63
2022-07-29T07:12:09.567Z,25.71
2022-07-29T07:14:37.864Z,25.79
2022-07-29T07:17:05.971Z,25.92
2022-07-29T07:19:33.965Z,26.03
2022-07-29T07:22:02.247Z,26.16
2022-07-29T07:24:33.175Z,26.17
2022-07-29T07:27:01.072Z,26.07
2022-07-29T07:29:29.285Z,25.81
2022-07-29T07:32:00.753Z,25.27
2022-07-29T07:34:31.751Z,25.08
2022-07-29T07:37:01.147Z,24.92
2022-07-29T07:39:29.197Z,24.75
2022-07-29T07:41:57.318Z,24.61
2022-07-29T07:44:25.613Z,24.47
2022-07-29T07:46:54.711Z,24.29
2022-07-29T07:49:22.972Z,24.19
2022-07-29T07:51:51.376Z,24.11
2022-07-29T07:54:20.832Z,23.99
2022-07-29T07:56:53.177Z,24.05
2022-07-29T07:59:21.857Z,24.06
2022-07-29T08:01:55.803Z,24.11
2022-07-29T08:04:28.502Z,24.25
2022-07-29T08:06:59.000Z,24.38
2022-07-29T08:09:29.836Z,24.48
2022-07-29T08:12:00.954Z,24.59
2022-07-29T08:14:29.077Z,24.61
2022-07-29T08:16:57.311Z,24.83
2022-07-29T08:19:25.597Z,24.91
2022-07-29T08:21:55.254Z,24.96
2022-07-29T08:24:43.825Z,24.99
2022-07-29T08:27:40.644Z,25.03
2022-07-29T08:30:03.360Z,25.25
2022-07-29T08:32:52.658Z,25.41
2022-07-29T08:35:26.905Z,25.48
2022-07-29T08:37:56.356Z,25.44
2022-07-29T08:40:30.473Z,25.36
2022-07-29T08:43:09.898Z,25.17
2022-07-29T08:45:48.112Z,25.08
2022-07-29T08:48:23.129Z,25.07
2022-07-29T08:50:57.121Z,25.10
2022-07-29T08:53:28.714Z,25.15
2022-07-29T08:55:58.794Z,25.13
2022-07-29T08:58:28.880Z,25.31
2022-07-29T09:01:16.849Z,25.43
2022-07-29T09:03:48.916Z,25.56
2022-07-29T09:06:19.932Z,25.66
2022-07-29T09:08:50.128Z,25.75
2022-07-29T09:11:18.295Z,25.75
2022-07-29T09:13:46.541Z,25.77
2022-07-29T09:16:26.715Z,25.74
2022-07-29T09:19:02.955Z,25.69
2022-07-29T09:22:05.199Z,25.78
2022-07-29T09:24:49.034Z,25.89
2022-07-29T09:27:28.361Z,25.88
2022-07-29T09:30:01.664Z,25.91
2022-07-29T09:32:32.289Z,25.93
2022-07-29T09:35:23.732Z,26.09
2022-07-29T09:37:52.743Z,26.31
2022-07-29T09:40:23.811Z,26.33
2022-07-29T09:42:53.520Z,26.10
2022-07-29T09:45:36.984Z,25.69
2022-07-29T09:48:20.547Z,25.41
2022-07-29T09:50:51.244Z,25.31
2022-07-29T09:53:41.798Z,25.13
2022-07-29T09:56:12.269Z,25.06
2022-07-29T09:58:40.618Z,24.95
2022-07-29T10:01:09.829Z,24.85
2022-07-29T10:03:55.044Z,24.84
2022-07-29T10:06:25.598Z,24.74
2022-07-29T10:08:54.137Z,24.75
2022-07-29T10:11:22.557Z,24.67
2022-07-29T10:13:52.902Z,24.62
2022-07-29T10:16:21.256Z,24.56
2022-07-29T10:18:49.484Z,24.52
2022-07-29T10:21:35.082Z,24.49
2022-07-29T10:24:05.779Z,24.46
2022-07-29T10:26:35.142Z,24.44
2022-07-29T10:29:03.397Z,24.42
2022-07-29T10:31:44.519Z,24.38
2022-07-29T10:34:46.871Z,24.40
2022-07-29T10:37:36.780Z,24.50
2022-07-29T10:40:50.956Z,24.64
2022-07-29T10:43:31.934Z,24.67
2022-07-29T10:46:02.263Z,24.58
2022-07-29T10:48:31.130Z,24.42
2022-07-29T10:51:04.998Z,24.36
2022-07-29T10:53:54.702Z,24.26
2022-07-29T10:56:38.162Z,24.19
2022-07-29T10:59:22.747Z,24.21
2022-07-29T11:01:56.703Z,24.19
2022-07-29T11:04:47.216Z,24.29
2022-07-29T11:07:19.141Z,24.35
2022-07-29T11:10:13.029Z,24.32
2022-07-29T11:12:45.364Z,24.33
2022-07-29T11:15:22.645Z,24.33
2022-07-29T11:18:17.415Z,24.28
2022-07-29T11:20:51.973Z,24.18
2022-07-29T11:23:33.737Z,24.12
2022-07-29T11:26:12.881Z,24.10
2022-07-29T11:29:04.979Z,24.04
2022-07-29T11:31:44.913Z,23.96
2022-07-29T11:34:22.916Z,23.88
2022-07-29T11:37:11.374Z,23.75
2022-07-29T11:39:43.880Z,23.53
2022-07-29T11:42:28.512Z,23.33
2022-07-29T11:45:41.271Z,23.21
2022-07-29T11:50:48.555Z,23.05
2022-07-29T11:53:17.157Z,22.83
2022-07-29T11:55:50.938Z,22.84
2022-07-29T11:58:25.246Z,22.79
2022-07-29T12:00:55.253Z,22.61
2022-07-29T12:03:32.834Z,22.75
2022-07-29T12:06:04.588Z,22.71
2022-07-29T12:08:44.498Z,22.72
2022-07-29T12:11:22.479Z,22.79
2022-07-29T12:13:53.886Z,22.93
2022-07-29T12:16:25.732Z,22.96
2022-07-29T12:19:04.340Z,22.95
2022-07-29T12:21:56.861Z,22.97
2022-07-29T12:24:29.527Z,23.05
2022-07-29T12:26:58.434Z,23.13
2022-07-29T12:29:33.996Z,23.18
2022-07-29T12:32:14.568Z,23.24
2022-07-29T12:34:45.138Z,23.28
2022-07-29T12:37:13.461Z,23.30
2022-07-29T12:39:41.918Z,23.35
2022-07-29T12:42:18.763Z,23.37
2022-07-29T12:47:53.806Z,23.37
2022-07-29T12:50:26.570Z,23.38
2022-07-29T12:52:55.298Z,23.36
2022-07-29T12:55:44.401Z,23.39
2022-07-29T12:58:12.704Z,23.40
2022-07-29T13:00:40.863Z,23.38
2022-07-29T13:03:10.012Z,23.37
2022-07-29T13:05:48.831Z,23.32
2022-07-29T13:08:23.020Z,23.30
2022-07-29T13:10:51.523Z,23.25
2022-07-29T13:13:19.567Z,23.19
2022-07-29T13:15:51.475Z,23.17
2022-07-29T13:18:39.754Z,23.16
2022-07-29T13:21:18.732Z,23.14
2022-07-29T13:23:47.310Z,23.14
2022-07-29T13:26:18.015Z,23.10
2022-07-29T13:28:48.339Z,22.93
2022-07-29T13:31:16.466Z,23.03
2022-07-29T13:33:44.532Z,22.94
2022-07-29T13:36:12.828Z,22.89
2022-07-29T13:38:40.783Z,22.88
2022-07-29T13:41:08.928Z,22.90
2022-07-29T13:43:37.082Z,22.86
2022-07-29T13:46:05.223Z,22.78
2022-07-29T13:48:33.384Z,22.71
2022-07-29T13:51:01.572Z,22.62
2022-07-29T13:53:30.229Z,22.55
2022-07-29T13:55:58.341Z,22.53
2022-07-29T13:58:26.701Z,22.46
2022-07-29T14:00:54.854Z,22.46
2022-07-29T14:03:23.045Z,22.40
2022-07-29T14:05:51.910Z,22.40
2022-07-29T14:08:20.308Z,22.38
2022-07-29T14:10:49.596Z,22.35
2022-07-29T14:13:25.348Z,22.31
2022-07-29T14:15:55.096Z,22.23
2022-07-29T14:18:23.280Z,22.18
2022-07-29T14:20:53.522Z,22.18
2022-07-29T14:26:08.771Z,22.04
2022-07-29T14:28:42.042Z,21.94
2022-07-29T14:31:10.148Z,21.98
2022-07-29T14:33:39.278Z,21.94
2022-07-29T14:36:09.435Z,21.67
2022-07-29T14:38:39.197Z,21.79
2022-07-29T14:41:09.149Z,21.80
2022-07-29T14:43:37.454Z,21.66
2022-07-29T14:46:08.431Z,21.74
2022-07-29T14:48:37.825Z,21.74
2022-07-29T14:51:06.097Z,21.61
2022-07-29T14:53:34.476Z,21.63
2022-07-29T14:56:20.891Z,21.69
2022-07-29T14:59:09.572Z,21.70
2022-07-29T15:01:37.950Z,21.61
2022-07-29T15:04:06.349Z,21.48
2022-07-29T15:06:34.665Z,21.61
2022-07-29T15:09:02.997Z,21.60
2022-07-29T15:11:37.870Z,21.55
2022-07-29T15:14:10.126Z,21.51
2022-07-29T15:16:40.114Z,21.50
2022-07-29T15:19:12.721Z,21.48
2022-07-29T15:21:48.436Z,21.38
2022-07-29T15:24:18.894Z,21.36
2022-07-29T15:26:48.757Z,21.42
2022-07-29T15:29:17.055Z,21.23
2022-07-29T15:31:45.657Z,21.36
2022-07-29T15:34:13.985Z,21.38
2022-07-29T15:36:57.580Z,21.28
2022-07-29T15:39:27.100Z,21.29
2022-07-29T15:41:55.399Z,21.26
2022-07-29T15:44:23.944Z,21.24
2022-07-29T15:47:04.544Z,21.19
2022-07-29T15:49:48.725Z,21.18
2022-07-29T15:52:26.251Z,21.21
2022-07-29T15:54:57.092Z,21.18
2022-07-29T15:57:25.889Z,21.18
2022-07-29T15:59:56.195Z,21.15
2022-07-29T16:02:24.423Z,21.03
2022-07-29T16:04:52.686Z,21.00
2022-07-29T16:07:21.083Z,20.99
2022-07-29T16:09:52.961Z,20.93
2022-07-29T16:12:21.983Z,20.88
2022-07-29T16:15:13.373Z,20.83
2022-07-29T16:17:41.209Z,20.78
2022-07-29T16:20:09.942Z,20.68
2022-07-29T16:22:41.062Z,20.65
2022-07-29T16:25:09.772Z,20.59
2022-07-29T16:27:38.490Z,20.51
2022-07-29T16:30:14.063Z,20.49
2022-07-29T16:32:42.057Z,20.42
2022-07-29T16:35:10.672Z,20.35
2022-07-29T16:37:40.175Z,20.28
2022-07-29T16:40:11.643Z,20.18
2022-07-29T16:42:47.890Z,20.13
2022-07-29T16:45:21.446Z,20.09
2022-07-29T16:47:49.991Z,20.07
2022-07-29T16:50:18.289Z,20.03
2022-07-29T16:52:50.253Z,19.99
2022-07-29T16:55:18.348Z,19.83
2022-07-29T16:57:47.589Z,19.90
2022-07-29T17:00:18.257Z,19.86
2022-07-29T17:02:46.619Z,19.77
2022-07-29T17:05:16.356Z,19.64
2022-07-29T17:07:44.787Z,19.50
2022-07-29T17:10:12.951Z,19.41
2022-07-29T17:12:42.368Z,19.54
2022-07-29T17:15:14.316Z,19.49
2022-07-29T17:17:56.475Z,19.62
2022-07-29T17:20:28.904Z,19.64
2022-07-29T17:22:57.642Z,19.62
2022-07-29T17:25:25.695Z,19.63
2022-07-29T17:28:00.561Z,19.62
2022-07-29T17:30:30.839Z,19.59
2022-07-29T17:32:58.972Z,19.66
2022-07-29T17:35:45.223Z,19.71
2022-07-29T17:38:16.717Z,19.72
2022-07-29T17:40:44.770Z,19.74
2022-07-29T17:43:12.786Z,19.75
2022-07-29T17:45:50.382Z,19.73
2022-07-29T17:48:20.222Z,19.69
2022-07-29T17:50:50.221Z,19.67
2022-07-29T17:53:17.953Z,19.66
2022-07-29T17:55:49.275Z,19.62
2022-07-29T17:58:19.150Z,19.60
2022-07-29T18:00:47.354Z,19.59
2022-07-29T18:03:16.672Z,19.60
2022-07-29T18:05:46.314Z,19.61
2022-07-29T18:08:14.549Z,19.60
2022-07-29T18:10:42.561Z,19.58
2022-07-29T18:13:13.343Z,19.52
2022-07-29T18:15:41.813Z,19.53
2022-07-29T18:18:10.459Z,19.52
2022-07-29T18:20:40.079Z,19.38
2022-07-29T18:23:08.214Z,19.44
2022-07-29T18:25:36.435Z,19.38
2022-07-29T18:28:05.944Z,19.34
2022-07-29T18:30:35.105Z,19.30
2022-07-29T18:33:21.401Z,19.22
2022-07-29T18:36:11.236Z,19.23
2022-07-29T18:38:42.034Z,19.16
2022-07-29T18:41:11.094Z,19.15
2022-07-29T18:43:39.233Z,19.01
2022-07-29T18:46:07.445Z,19.07
2022-07-29T18:48:38.124Z,19.08
2022-07-29T18:51:09.449Z,19.06
2022-07-29T18:53:38.415Z,19.01
2022-07-29T18:56:09.647Z,19.04
2022-07-29T18:58:39.059Z,19.02
2022-07-29T19:01:31.659Z,19.01
2022-07-29T19:04:01.026Z,19.01
2022-07-29T19:06:29.084Z,18.99
2022-07-29T19:08:57.399Z,18.93
2022-07-29T19:11:25.484Z,18.70
2022-07-29T19:13:53.525Z,18.90
2022-07-29T19:16:23.138Z,18.86
2022-07-29T19:18:51.171Z,18.80
2022-07-29T19:21:20.056Z,18.64
2022-07-29T19:24:03.820Z,18.68
2022-07-29T19:26:44.585Z,18.70
2022-07-29T19:29:14.279Z,18.58
2022-07-29T19:31:43.531Z,18.48
2022-07-29T19:34:11.661Z,18.53
2022-07-29T19:36:41.135Z,18.50
2022-07-29T19:39:09.066Z,18.46
2022-07-29T19:41:37.341Z,18.44
2022-07-29T19:44:07.307Z,18.36
2022-07-29T19:46:35.110Z,18.38
2022-07-29T19:49:03.219Z,18.26
2022-07-29T19:51:31.269Z,18.20
2022-07-29T19:53:59.271Z,18.21
2022-07-29T19:56:30.354Z,18.18
2022-07-29T19:59:00.177Z,18.15
2022-07-29T20:01:30.059Z,18.15
2022-07-29T20:03:58.075Z,18.12
2022-07-29T20:06:26.199Z,18.02
2022-07-29T20:08:58.274Z,18.01
2022-07-29T20:11:27.363Z,18.04
2022-07-29T20:13:55.419Z,17.99
2022-07-29T20:16:25.439Z,17.88
2022-07-29T20:18:57.451Z,17.95
2022-07-29T20:21:27.425Z,17.92
2022-07-29T20:23:57.566Z,17.88
2022-07-29T20:26:27.197Z,17.82
2022-07-29T20:28:55.284Z,17.80
2022-07-29T20:31:23.353Z,17.77
2022-07-29T20:33:51.739Z,17.76
2022-07-29T20:36:19.768Z,17.69
2022-07-29T20:38:47.851Z,17.66
2022-07-29T20:41:15.995Z,17.61
2022-07-29T20:43:44.406Z,17.57
2022-07-29T20:46:12.559Z,17.44
2022-07-29T20:48:42.349Z,17.48
2022-07-29T20:51:10.487Z,17.40
2022-07-29T20:53:40.476Z,17.45
2022-07-29T20:56:08.438Z,17.44
2022-07-29T20:58:37.175Z,17.40
2022-07-29T21:01:05.746Z,17.35
2022-07-29T21:03:35.176Z,17.25
2022-07-29T21:06:03.435Z,17.16
2022-07-29T21:08:31.699Z,17.09
2022-07-29T21:10:59.882Z,16.63
2022-07-29T21:13:28.299Z,17.04
2022-07-29T21:16:03.429Z,17.03
2022-07-29T21:18:39.112Z,16.99
2022-07-29T21:21:08.874Z,16.96
2022-07-29T21:23:36.893Z,16.83
2022-07-29T21:26:08.703Z,16.62
2022-07-29T21:28:41.401Z,16.50
2022-07-29T21:31:18.426Z,16.47
2022-07-29T21:33:48.252Z,16.51
2022-07-29T21:39:09.271Z,16.62
2022-07-29T21:41:37.367Z,16.60
2022-07-29T21:44:05.426Z,16.54
2022-07-29T21:46:35.219Z,16.59
2022-07-29T21:49:03.230Z,16.58
2022-07-29T21:51:31.406Z,16.50
2022-07-29T21:54:01.110Z,16.53
2022-07-29T21:56:30.520Z,16.46
2022-07-29T21:58:59.321Z,16.40
2022-07-29T22:01:27.507Z,16.29
2022-07-29T22:03:55.554Z,16.31
2022-07-29T22:06:23.575Z,16.30
2022-07-29T22:08:52.713Z,16.14
2022-07-29T22:11:21.141Z,16.10
2022-07-29T22:13:49.207Z,16.15
2022-07-29T22:16:19.077Z,16.20
2022-07-29T22:18:49.036Z,16.25
2022-07-29T22:21:17.274Z,16.06
2022-07-29T22:23:46.931Z,16.16
2022-07-29T22:26:15.007Z,16.09
2022-07-29T22:28:43.085Z,16.13
2022-07-29T22:31:13.164Z,16.08
2022-07-29T22:33:41.196Z,16.12
2022-07-29T22:36:09.332Z,16.10
2022-07-29T22:38:37.591Z,16.07
2022-07-29T22:41:05.670Z,16.11
2022-07-29T22:43:33.704Z,16.07
2022-07-29T22:46:02.059Z,16.04
2022-07-29T22:48:30.141Z,15.91
2022-07-29T22:50:58.241Z,15.87
2022-07-29T22:53:28.127Z,15.88
2022-07-29T22:55:56.085Z,15.93
2022-07-29T22:58:24.185Z,15.96
2022-07-29T23:00:52.520Z,15.99
2022-07-29T23:03:21.259Z,16.03
2022-07-29T23:05:51.426Z,16.06
2022-07-29T23:08:20.148Z,16.08
2022-07-29T23:10:48.454Z,16.08
2022-07-29T23:13:16.516Z,16.19
2022-07-29T23:15:45.666Z,16.13
2022-07-29T23:18:13.754Z,16.15
2022-07-29T23:20:43.958Z,16.24
2022-07-29T23:23:12.058Z,16.35
2022-07-29T23:25:40.123Z,16.33
2022-07-29T23:28:11.676Z,16.46
2022-07-29T23:30:43.570Z,16.56
2022-07-29T23:33:11.651Z,16.66
2022-07-29T23:35:39.697Z,16.80
2022-07-29T23:38:08.710Z,16.91
2022-07-29T23:40:36.724Z,17.00
2022-07-29T23:43:08.495Z,17.05
2022-07-29T23:45:44.822Z,16.92
2022-07-29T23:48:13.748Z,16.77
2022-07-29T23:50:41.766Z,16.71
2022-07-29T23:53:09.962Z,16.79
2022-07-29T23:55:39.382Z,16.91
2022-07-29T23:58:07.669Z,17.08
